sensor_id;sensor_type;location;lat;lon;timestamp;temperature;humidity
6948;DHT22;3513;47.664;9.162;2023-12-20T00:02:21;5.10;98.10
6948;DHT22;3513;47.664;9.162;2023-12-20T00:04:47;5.10;98.00
6948;DHT22;3513;47.664;9.162;2023-12-20T00:07:12;5.10;97.90
6948;DHT22;3513;47.664;9.162;2023-12-20T00:09:38;5.10;97.90
6948;DHT22;3513;47.664;9.162;2023-12-20T00:12:03;5.10;97.90
6948;DHT22;3513;47.664;9.162;2023-12-20T00:14:29;5.20;97.70
6948;DHT22;3513;47.664;9.162;2023-12-20T00:16:55;5.10;97.70
6948;DHT22;3513;47.664;9.162;2023-12-20T00:19:20;5.20;97.50
6948;DHT22;3513;47.664;9.162;2023-12-20T00:21:46;5.20;97.50
6948;DHT22;3513;47.664;9.162;2023-12-20T00:24:11;5.20;97.30
6948;DHT22;3513;47.664;9.162;2023-12-20T00:26:37;5.30;97.00
6948;DHT22;3513;47.664;9.162;2023-12-20T00:29:02;5.30;96.90
6948;DHT22;3513;47.664;9.162;2023-12-20T00:31:28;5.30;96.90
6948;DHT22;3513;47.664;9.162;2023-12-20T00:33:53;5.30;96.70
6948;DHT22;3513;47.664;9.162;2023-12-20T00:36:20;5.30;96.50
6948;DHT22;3513;47.664;9.162;2023-12-20T00:38:45;5.40;96.30
6948;DHT22;3513;47.664;9.162;2023-12-20T00:41:11;5.40;96.10
6948;DHT22;3513;47.664;9.162;2023-12-20T00:43:36;5.40;95.90
6948;DHT22;3513;47.664;9.162;2023-12-20T00:46:02;5.40;95.50
6948;DHT22;3513;47.664;9.162;2023-12-20T00:48:28;5.40;95.10
6948;DHT22;3513;47.664;9.162;2023-12-20T00:50:55;5.40;95.00
6948;DHT22;3513;47.664;9.162;2023-12-20T00:53:21;5.40;95.00
6948;DHT22;3513;47.664;9.162;2023-12-20T00:55:46;5.40;95.00
6948;DHT22;3513;47.664;9.162;2023-12-20T00:58:12;5.40;94.90
6948;DHT22;3513;47.664;9.162;2023-12-20T01:00:37;5.40;95.10
6948;DHT22;3513;47.664;9.162;2023-12-20T01:03:03;5.40;94.50
6948;DHT22;3513;47.664;9.162;2023-12-20T01:05:29;5.40;94.30
6948;DHT22;3513;47.664;9.162;2023-12-20T01:07:54;5.50;94.20
6948;DHT22;3513;47.664;9.162;2023-12-20T01:10:20;5.40;93.70
6948;DHT22;3513;47.664;9.162;2023-12-20T01:12:47;5.50;93.60
6948;DHT22;3513;47.664;9.162;2023-12-20T01:15:12;5.50;94.00
6948;DHT22;3513;47.664;9.162;2023-12-20T01:17:38;5.50;94.00
6948;DHT22;3513;47.664;9.162;2023-12-20T01:20:04;5.40;93.70
6948;DHT22;3513;47.664;9.162;2023-12-20T01:22:30;5.40;93.50
6948;DHT22;3513;47.664;9.162;2023-12-20T01:24:55;5.40;93.30
6948;DHT22;3513;47.664;9.162;2023-12-20T01:27:21;5.50;93.40
6948;DHT22;3513;47.664;9.162;2023-12-20T01:29:46;5.50;92.70
6948;DHT22;3513;47.664;9.162;2023-12-20T01:32:12;5.50;92.80
6948;DHT22;3513;47.664;9.162;2023-12-20T01:34:37;5.60;92.70
6948;DHT22;3513;47.664;9.162;2023-12-20T01:37:03;5.60;92.50
6948;DHT22;3513;47.664;9.162;2023-12-20T01:39:29;5.70;92.10
6948;DHT22;3513;47.664;9.162;2023-12-20T01:41:55;5.70;92.00
6948;DHT22;3513;47.664;9.162;2023-12-20T01:44:20;5.70;91.80
6948;DHT22;3513;47.664;9.162;2023-12-20T01:46:46;5.80;91.40
6948;DHT22;3513;47.664;9.162;2023-12-20T01:49:13;5.80;91.20
6948;DHT22;3513;47.664;9.162;2023-12-20T01:51:39;5.90;91.30
6948;DHT22;3513;47.664;9.162;2023-12-20T01:54:04;5.90;91.20
6948;DHT22;3513;47.664;9.162;2023-12-20T01:56:31;5.90;91.00
6948;DHT22;3513;47.664;9.162;2023-12-20T01:58:57;5.80;91.20
6948;DHT22;3513;47.664;9.162;2023-12-20T02:01:23;5.80;91.10
6948;DHT22;3513;47.664;9.162;2023-12-20T02:03:50;5.90;90.80
6948;DHT22;3513;47.664;9.162;2023-12-20T02:06:16;6.00;90.80
6948;DHT22;3513;47.664;9.162;2023-12-20T02:08:42;6.00;90.80
6948;DHT22;3513;47.664;9.162;2023-12-20T02:11:07;6.00;90.40
6948;DHT22;3513;47.664;9.162;2023-12-20T02:13:33;6.00;90.40
6948;DHT22;3513;47.664;9.162;2023-12-20T02:15:59;6.00;90.50
6948;DHT22;3513;47.664;9.162;2023-12-20T02:18:25;6.00;90.30
6948;DHT22;3513;47.664;9.162;2023-12-20T02:20:51;6.00;90.50
6948;DHT22;3513;47.664;9.162;2023-12-20T02:23:16;6.00;90.80
6948;DHT22;3513;47.664;9.162;2023-12-20T02:25:42;6.00;90.90
6948;DHT22;3513;47.664;9.162;2023-12-20T02:28:07;5.90;91.40
6948;DHT22;3513;47.664;9.162;2023-12-20T02:30:33;5.90;92.00
6948;DHT22;3513;47.664;9.162;2023-12-20T02:33:03;5.80;92.40
6948;DHT22;3513;47.664;9.162;2023-12-20T02:35:32;5.70;92.80
6948;DHT22;3513;47.664;9.162;2023-12-20T02:37:58;5.60;93.50
6948;DHT22;3513;47.664;9.162;2023-12-20T02:40:23;5.60;94.10
6948;DHT22;3513;47.664;9.162;2023-12-20T02:42:49;5.60;94.30
6948;DHT22;3513;47.664;9.162;2023-12-20T02:45:15;5.70;94.40
6948;DHT22;3513;47.664;9.162;2023-12-20T02:47:40;5.70;94.50
6948;DHT22;3513;47.664;9.162;2023-12-20T02:50:06;5.70;94.70
6948;DHT22;3513;47.664;9.162;2023-12-20T02:52:31;5.80;94.40
6948;DHT22;3513;47.664;9.162;2023-12-20T02:54:57;5.80;94.50
6948;DHT22;3513;47.664;9.162;2023-12-20T02:57:23;5.80;94.40
6948;DHT22;3513;47.664;9.162;2023-12-20T02:59:48;5.80;94.20
6948;DHT22;3513;47.664;9.162;2023-12-20T03:02:14;5.80;94.10
6948;DHT22;3513;47.664;9.162;2023-12-20T03:04:39;5.80;94.00
6948;DHT22;3513;47.664;9.162;2023-12-20T03:07:05;5.80;93.80
6948;DHT22;3513;47.664;9.162;2023-12-20T03:09:30;5.80;93.60
6948;DHT22;3513;47.664;9.162;2023-12-20T03:11:56;5.70;93.60
6948;DHT22;3513;47.664;9.162;2023-12-20T03:14:22;5.70;93.70
6948;DHT22;3513;47.664;9.162;2023-12-20T03:16:49;5.80;93.70
6948;DHT22;3513;47.664;9.162;2023-12-20T03:19:15;5.80;93.80
6948;DHT22;3513;47.664;9.162;2023-12-20T03:21:41;5.70;93.90
6948;DHT22;3513;47.664;9.162;2023-12-20T03:24:07;5.70;94.00
6948;DHT22;3513;47.664;9.162;2023-12-20T03:26:32;5.70;94.30
6948;DHT22;3513;47.664;9.162;2023-12-20T03:28:58;5.70;94.70
6948;DHT22;3513;47.664;9.162;2023-12-20T03:31:23;5.70;94.90
6948;DHT22;3513;47.664;9.162;2023-12-20T03:33:49;5.60;95.40
6948;DHT22;3513;47.664;9.162;2023-12-20T03:36:16;5.60;96.10
6948;DHT22;3513;47.664;9.162;2023-12-20T03:38:42;5.50;96.30
6948;DHT22;3513;47.664;9.162;2023-12-20T03:41:07;5.50;97.30
6948;DHT22;3513;47.664;9.162;2023-12-20T03:43:33;5.40;97.80
6948;DHT22;3513;47.664;9.162;2023-12-20T03:45:58;5.50;98.90
6948;DHT22;3513;47.664;9.162;2023-12-20T03:48:25;5.50;99.10
6948;DHT22;3513;47.664;9.162;2023-12-20T03:50:50;5.40;99.80
6948;DHT22;3513;47.664;9.162;2023-12-20T03:53:16;5.40;99.90
6948;DHT22;3513;47.664;9.162;2023-12-20T03:55:41;5.40;99.90
6948;DHT22;3513;47.664;9.162;2023-12-20T03:58:07;5.40;99.90
6948;DHT22;3513;47.664;9.162;2023-12-20T04:00:33;5.20;99.90
6948;DHT22;3513;47.664;9.162;2023-12-20T04:02:58;5.20;99.90
6948;DHT22;3513;47.664;9.162;2023-12-20T04:05:24;5.20;99.90
6948;DHT22;3513;47.664;9.162;2023-12-20T04:07:49;5.20;99.90
6948;DHT22;3513;47.664;9.162;2023-12-20T04:10:15;5.20;99.90
6948;DHT22;3513;47.664;9.162;2023-12-20T04:12:41;5.10;99.90
6948;DHT22;3513;47.664;9.162;2023-12-20T04:15:07;5.10;99.90
6948;DHT22;3513;47.664;9.162;2023-12-20T04:17:35;5.10;99.90
6948;DHT22;3513;47.664;9.162;2023-12-20T04:20:01;5.00;99.90
6948;DHT22;3513;47.664;9.162;2023-12-20T04:22:27;5.00;99.90
6948;DHT22;3513;47.664;9.162;2023-12-20T04:24:53;4.90;99.90
6948;DHT22;3513;47.664;9.162;2023-12-20T04:27:18;4.90;99.90
6948;DHT22;3513;47.664;9.162;2023-12-20T04:29:44;4.90;99.90
6948;DHT22;3513;47.664;9.162;2023-12-20T04:32:10;4.90;99.90
6948;DHT22;3513;47.664;9.162;2023-12-20T04:34:36;4.90;99.90
6948;DHT22;3513;47.664;9.162;2023-12-20T04:37:01;4.90;99.90
6948;DHT22;3513;47.664;9.162;2023-12-20T04:39:27;4.90;99.90
6948;DHT22;3513;47.664;9.162;2023-12-20T04:41:53;4.90;99.90
6948;DHT22;3513;47.664;9.162;2023-12-20T04:44:18;5.00;99.90
6948;DHT22;3513;47.664;9.162;2023-12-20T04:46:44;4.90;99.90
6948;DHT22;3513;47.664;9.162;2023-12-20T04:49:09;4.90;99.90
6948;DHT22;3513;47.664;9.162;2023-12-20T04:51:35;4.90;99.90
6948;DHT22;3513;47.664;9.162;2023-12-20T04:54:01;4.90;99.90
6948;DHT22;3513;47.664;9.162;2023-12-20T04:56:27;4.90;99.90
6948;DHT22;3513;47.664;9.162;2023-12-20T04:58:53;4.90;99.90
6948;DHT22;3513;47.664;9.162;2023-12-20T05:01:18;4.90;99.90
6948;DHT22;3513;47.664;9.162;2023-12-20T05:03:44;4.90;99.90
6948;DHT22;3513;47.664;9.162;2023-12-20T05:06:10;4.80;99.90
6948;DHT22;3513;47.664;9.162;2023-12-20T05:08:35;4.90;99.90
6948;DHT22;3513;47.664;9.162;2023-12-20T05:11:01;4.90;99.90
6948;DHT22;3513;47.664;9.162;2023-12-20T05:13:27;4.90;99.90
6948;DHT22;3513;47.664;9.162;2023-12-20T05:15:52;4.90;99.90
6948;DHT22;3513;47.664;9.162;2023-12-20T05:18:18;4.90;99.90
6948;DHT22;3513;47.664;9.162;2023-12-20T05:20:43;5.00;99.90
6948;DHT22;3513;47.664;9.162;2023-12-20T05:23:09;5.00;99.90
6948;DHT22;3513;47.664;9.162;2023-12-20T05:25:34;5.00;99.90
6948;DHT22;3513;47.664;9.162;2023-12-20T05:28:00;5.00;99.90
6948;DHT22;3513;47.664;9.162;2023-12-20T05:30:25;4.90;99.90
6948;DHT22;3513;47.664;9.162;2023-12-20T05:32:52;5.00;99.90
6948;DHT22;3513;47.664;9.162;2023-12-20T05:35:17;5.00;99.90
6948;DHT22;3513;47.664;9.162;2023-12-20T05:37:43;5.00;99.90
6948;DHT22;3513;47.664;9.162;2023-12-20T05:40:09;5.00;99.90
6948;DHT22;3513;47.664;9.162;2023-12-20T05:42:36;5.00;99.90
6948;DHT22;3513;47.664;9.162;2023-12-20T05:45:02;5.10;99.90
6948;DHT22;3513;47.664;9.162;2023-12-20T05:47:27;5.10;99.90
6948;DHT22;3513;47.664;9.162;2023-12-20T05:49:53;5.10;99.90
6948;DHT22;3513;47.664;9.162;2023-12-20T05:52:19;5.10;99.90
6948;DHT22;3513;47.664;9.162;2023-12-20T05:54:44;5.10;99.90
6948;DHT22;3513;47.664;9.162;2023-12-20T05:57:10;5.10;99.90
6948;DHT22;3513;47.664;9.162;2023-12-20T05:59:35;5.10;99.90
6948;DHT22;3513;47.664;9.162;2023-12-20T06:02:02;5.10;99.90
6948;DHT22;3513;47.664;9.162;2023-12-20T06:04:28;5.10;99.90
6948;DHT22;3513;47.664;9.162;2023-12-20T06:06:54;5.10;99.90
6948;DHT22;3513;47.664;9.162;2023-12-20T06:09:19;5.10;99.90
6948;DHT22;3513;47.664;9.162;2023-12-20T06:11:45;5.20;99.90
6948;DHT22;3513;47.664;9.162;2023-12-20T06:14:11;5.20;99.90
6948;DHT22;3513;47.664;9.162;2023-12-20T06:16:36;5.20;99.90
6948;DHT22;3513;47.664;9.162;2023-12-20T06:19:02;5.20;99.90
6948;DHT22;3513;47.664;9.162;2023-12-20T06:21:28;5.30;99.90
6948;DHT22;3513;47.664;9.162;2023-12-20T06:23:56;5.30;99.90
6948;DHT22;3513;47.664;9.162;2023-12-20T06:26:21;5.30;99.90
6948;DHT22;3513;47.664;9.162;2023-12-20T06:28:47;5.30;99.90
6948;DHT22;3513;47.664;9.162;2023-12-20T06:31:12;5.30;99.90
6948;DHT22;3513;47.664;9.162;2023-12-20T06:37:00;5.20;99.90
6948;DHT22;3513;47.664;9.162;2023-12-20T06:39:26;5.30;99.90
6948;DHT22;3513;47.664;9.162;2023-12-20T06:41:51;5.30;99.90
6948;DHT22;3513;47.664;9.162;2023-12-20T06:44:17;5.30;99.90
6948;DHT22;3513;47.664;9.162;2023-12-20T06:46:43;5.40;99.90
6948;DHT22;3513;47.664;9.162;2023-12-20T06:49:11;5.40;99.90
6948;DHT22;3513;47.664;9.162;2023-12-20T06:51:37;5.40;99.90
6948;DHT22;3513;47.664;9.162;2023-12-20T06:54:03;5.30;99.90
6948;DHT22;3513;47.664;9.162;2023-12-20T06:56:28;5.30;99.90
6948;DHT22;3513;47.664;9.162;2023-12-20T06:58:54;5.40;99.90
6948;DHT22;3513;47.664;9.162;2023-12-20T07:01:20;5.40;99.90
6948;DHT22;3513;47.664;9.162;2023-12-20T07:03:45;5.50;99.90
6948;DHT22;3513;47.664;9.162;2023-12-20T07:06:11;5.50;99.90
6948;DHT22;3513;47.664;9.162;2023-12-20T07:08:36;5.50;99.90
6948;DHT22;3513;47.664;9.162;2023-12-20T07:11:02;5.50;99.90
6948;DHT22;3513;47.664;9.162;2023-12-20T07:13:28;5.50;99.90
6948;DHT22;3513;47.664;9.162;2023-12-20T07:15:53;5.60;99.90
6948;DHT22;3513;47.664;9.162;2023-12-20T07:18:19;5.60;99.90
6948;DHT22;3513;47.664;9.162;2023-12-20T07:20:44;5.60;99.90
6948;DHT22;3513;47.664;9.162;2023-12-20T07:23:10;5.60;99.90
6948;DHT22;3513;47.664;9.162;2023-12-20T07:25:35;5.60;99.90
6948;DHT22;3513;47.664;9.162;2023-12-20T07:28:01;5.60;99.90
6948;DHT22;3513;47.664;9.162;2023-12-20T07:30:27;5.50;99.90
6948;DHT22;3513;47.664;9.162;2023-12-20T07:32:53;5.60;99.90
6948;DHT22;3513;47.664;9.162;2023-12-20T07:35:18;5.60;99.90
6948;DHT22;3513;47.664;9.162;2023-12-20T07:37:44;5.60;99.90
6948;DHT22;3513;47.664;9.162;2023-12-20T07:40:10;5.90;99.90
6948;DHT22;3513;47.664;9.162;2023-12-20T07:42:36;5.60;99.90
6948;DHT22;3513;47.664;9.162;2023-12-20T07:45:01;5.70;99.90
6948;DHT22;3513;47.664;9.162;2023-12-20T07:47:27;5.60;99.90
6948;DHT22;3513;47.664;9.162;2023-12-20T07:49:52;5.60;99.90
6948;DHT22;3513;47.664;9.162;2023-12-20T07:52:18;5.70;99.90
6948;DHT22;3513;47.664;9.162;2023-12-20T07:54:45;5.70;99.90
6948;DHT22;3513;47.664;9.162;2023-12-20T07:57:11;5.70;99.90
6948;DHT22;3513;47.664;9.162;2023-12-20T07:59:36;5.80;99.90
6948;DHT22;3513;47.664;9.162;2023-12-20T08:02:02;5.80;99.90
6948;DHT22;3513;47.664;9.162;2023-12-20T08:04:28;5.80;99.90
6948;DHT22;3513;47.664;9.162;2023-12-20T08:06:53;5.80;99.90
6948;DHT22;3513;47.664;9.162;2023-12-20T08:09:19;5.80;99.90
6948;DHT22;3513;47.664;9.162;2023-12-20T08:11:48;5.80;99.90
6948;DHT22;3513;47.664;9.162;2023-12-20T08:14:15;5.90;99.90
6948;DHT22;3513;47.664;9.162;2023-12-20T08:16:40;5.90;99.90
6948;DHT22;3513;47.664;9.162;2023-12-20T08:19:06;5.90;99.90
6948;DHT22;3513;47.664;9.162;2023-12-20T08:21:32;5.90;99.90
6948;DHT22;3513;47.664;9.162;2023-12-20T08:23:57;6.00;99.90
6948;DHT22;3513;47.664;9.162;2023-12-20T08:26:23;6.00;99.90
6948;DHT22;3513;47.664;9.162;2023-12-20T08:28:49;6.00;99.90
6948;DHT22;3513;47.664;9.162;2023-12-20T08:31:16;6.00;99.90
6948;DHT22;3513;47.664;9.162;2023-12-20T08:33:44;6.00;99.90
6948;DHT22;3513;47.664;9.162;2023-12-20T08:36:09;6.10;99.90
6948;DHT22;3513;47.664;9.162;2023-12-20T08:38:35;6.10;99.90
6948;DHT22;3513;47.664;9.162;2023-12-20T08:41:01;6.20;99.90
6948;DHT22;3513;47.664;9.162;2023-12-20T08:43:28;6.30;99.90
6948;DHT22;3513;47.664;9.162;2023-12-20T08:45:54;6.30;99.90
6948;DHT22;3513;47.664;9.162;2023-12-20T08:48:19;6.30;99.90
6948;DHT22;3513;47.664;9.162;2023-12-20T08:50:45;6.30;99.90
6948;DHT22;3513;47.664;9.162;2023-12-20T08:53:11;6.30;99.90
6948;DHT22;3513;47.664;9.162;2023-12-20T08:55:37;6.30;99.90
6948;DHT22;3513;47.664;9.162;2023-12-20T08:58:02;6.30;99.90
6948;DHT22;3513;47.664;9.162;2023-12-20T09:00:28;6.30;99.90
6948;DHT22;3513;47.664;9.162;2023-12-20T09:02:55;6.40;99.90
6948;DHT22;3513;47.664;9.162;2023-12-20T09:05:20;6.40;99.90
6948;DHT22;3513;47.664;9.162;2023-12-20T09:07:46;6.50;99.90
6948;DHT22;3513;47.664;9.162;2023-12-20T09:10:12;6.50;99.90
6948;DHT22;3513;47.664;9.162;2023-12-20T09:12:37;6.40;99.90
6948;DHT22;3513;47.664;9.162;2023-12-20T09:15:05;6.50;99.90
6948;DHT22;3513;47.664;9.162;2023-12-20T09:17:31;6.50;99.90
6948;DHT22;3513;47.664;9.162;2023-12-20T09:19:56;6.60;99.90
6948;DHT22;3513;47.664;9.162;2023-12-20T09:22:22;6.60;99.90
6948;DHT22;3513;47.664;9.162;2023-12-20T09:24:48;6.60;99.90
6948;DHT22;3513;47.664;9.162;2023-12-20T09:27:14;6.60;99.90
6948;DHT22;3513;47.664;9.162;2023-12-20T09:29:39;6.70;99.90
6948;DHT22;3513;47.664;9.162;2023-12-20T09:32:05;6.60;99.90
6948;DHT22;3513;47.664;9.162;2023-12-20T09:34:30;6.60;99.90
6948;DHT22;3513;47.664;9.162;2023-12-20T09:36:56;6.70;99.90
6948;DHT22;3513;47.664;9.162;2023-12-20T09:39:22;6.80;99.90
6948;DHT22;3513;47.664;9.162;2023-12-20T09:42:01;6.90;99.90
6948;DHT22;3513;47.664;9.162;2023-12-20T09:44:27;6.90;99.90
6948;DHT22;3513;47.664;9.162;2023-12-20T09:46:55;6.80;99.90
6948;DHT22;3513;47.664;9.162;2023-12-20T09:49:21;6.80;99.90
6948;DHT22;3513;47.664;9.162;2023-12-20T09:51:47;6.80;99.90
6948;DHT22;3513;47.664;9.162;2023-12-20T09:54:21;6.90;99.90
6948;DHT22;3513;47.664;9.162;2023-12-20T09:56:47;6.80;99.90
6948;DHT22;3513;47.664;9.162;2023-12-20T09:59:14;6.80;99.90
6948;DHT22;3513;47.664;9.162;2023-12-20T10:01:43;6.90;99.90
6948;DHT22;3513;47.664;9.162;2023-12-20T10:04:09;6.90;99.90
6948;DHT22;3513;47.664;9.162;2023-12-20T10:06:41;6.90;99.90
6948;DHT22;3513;47.664;9.162;2023-12-20T10:09:07;6.90;99.90
6948;DHT22;3513;47.664;9.162;2023-12-20T10:11:35;7.00;99.90
6948;DHT22;3513;47.664;9.162;2023-12-20T10:14:01;7.00;99.90
6948;DHT22;3513;47.664;9.162;2023-12-20T10:16:27;7.00;99.90
6948;DHT22;3513;47.664;9.162;2023-12-20T10:18:54;7.00;99.90
6948;DHT22;3513;47.664;9.162;2023-12-20T10:21:19;7.10;99.90
6948;DHT22;3513;47.664;9.162;2023-12-20T10:23:45;7.10;99.90
6948;DHT22;3513;47.664;9.162;2023-12-20T10:26:19;7.20;99.90
6948;DHT22;3513;47.664;9.162;2023-12-20T10:28:45;7.20;99.90
6948;DHT22;3513;47.664;9.162;2023-12-20T10:31:15;7.20;99.90
6948;DHT22;3513;47.664;9.162;2023-12-20T10:33:50;7.10;99.90
6948;DHT22;3513;47.664;9.162;2023-12-20T10:36:16;7.10;99.90
6948;DHT22;3513;47.664;9.162;2023-12-20T10:38:42;7.20;99.90
6948;DHT22;3513;47.664;9.162;2023-12-20T10:41:09;7.30;99.90
6948;DHT22;3513;47.664;9.162;2023-12-20T10:43:35;7.40;99.90
6948;DHT22;3513;47.664;9.162;2023-12-20T10:46:03;7.50;99.90
6948;DHT22;3513;47.664;9.162;2023-12-20T10:48:30;7.60;99.90
6948;DHT22;3513;47.664;9.162;2023-12-20T10:50:57;7.70;99.90
6948;DHT22;3513;47.664;9.162;2023-12-20T10:53:24;7.80;99.90
6948;DHT22;3513;47.664;9.162;2023-12-20T10:55:52;7.90;99.90
6948;DHT22;3513;47.664;9.162;2023-12-20T10:58:20;7.90;99.90
6948;DHT22;3513;47.664;9.162;2023-12-20T11:00:47;7.80;99.90
6948;DHT22;3513;47.664;9.162;2023-12-20T11:03:17;7.80;99.90
6948;DHT22;3513;47.664;9.162;2023-12-20T11:05:49;7.80;99.90
6948;DHT22;3513;47.664;9.162;2023-12-20T11:11:30;7.70;99.90
6948;DHT22;3513;47.664;9.162;2023-12-20T11:14:14;7.80;99.90
6948;DHT22;3513;47.664;9.162;2023-12-20T11:16:41;7.80;99.90
6948;DHT22;3513;47.664;9.162;2023-12-20T11:19:07;7.80;99.90
6948;DHT22;3513;47.664;9.162;2023-12-20T11:21:33;7.90;99.90
6948;DHT22;3513;47.664;9.162;2023-12-20T11:24:03;7.80;99.90
6948;DHT22;3513;47.664;9.162;2023-12-20T11:26:29;7.80;99.90
6948;DHT22;3513;47.664;9.162;2023-12-20T11:29:31;7.80;99.90
6948;DHT22;3513;47.664;9.162;2023-12-20T11:32:04;7.90;99.90
6948;DHT22;3513;47.664;9.162;2023-12-20T11:34:51;8.00;99.70
6948;DHT22;3513;47.664;9.162;2023-12-20T11:37:16;8.20;99.70
6948;DHT22;3513;47.664;9.162;2023-12-20T11:39:44;8.20;99.60
6948;DHT22;3513;47.664;9.162;2023-12-20T11:42:10;8.20;99.90
6948;DHT22;3513;47.664;9.162;2023-12-20T11:44:37;8.30;99.90
6948;DHT22;3513;47.664;9.162;2023-12-20T11:47:03;8.30;99.90
6948;DHT22;3513;47.664;9.162;2023-12-20T11:49:29;8.20;99.90
6948;DHT22;3513;47.664;9.162;2023-12-20T11:51:56;8.20;99.90
6948;DHT22;3513;47.664;9.162;2023-12-20T11:54:22;8.10;99.90
6948;DHT22;3513;47.664;9.162;2023-12-20T11:56:48;8.00;99.90
6948;DHT22;3513;47.664;9.162;2023-12-20T11:59:13;7.90;99.90
6948;DHT22;3513;47.664;9.162;2023-12-20T12:01:39;8.00;99.90
6948;DHT22;3513;47.664;9.162;2023-12-20T12:04:05;8.00;99.90
6948;DHT22;3513;47.664;9.162;2023-12-20T12:06:32;8.10;99.90
6948;DHT22;3513;47.664;9.162;2023-12-20T12:08:57;8.10;99.90
6948;DHT22;3513;47.664;9.162;2023-12-20T12:11:23;8.10;99.90
6948;DHT22;3513;47.664;9.162;2023-12-20T12:13:49;8.20;99.90
6948;DHT22;3513;47.664;9.162;2023-12-20T12:16:19;8.20;99.90
6948;DHT22;3513;47.664;9.162;2023-12-20T12:18:45;8.30;99.90
6948;DHT22;3513;47.664;9.162;2023-12-20T12:21:18;8.30;99.40
6948;DHT22;3513;47.664;9.162;2023-12-20T12:23:43;8.30;99.50
6948;DHT22;3513;47.664;9.162;2023-12-20T12:26:09;8.40;99.40
6948;DHT22;3513;47.664;9.162;2023-12-20T12:28:34;8.50;99.50
6948;DHT22;3513;47.664;9.162;2023-12-20T12:31:00;8.50;99.40
6948;DHT22;3513;47.664;9.162;2023-12-20T12:33:26;8.50;99.40
6948;DHT22;3513;47.664;9.162;2023-12-20T12:35:52;8.50;99.20
6948;DHT22;3513;47.664;9.162;2023-12-20T12:38:21;8.50;99.50
6948;DHT22;3513;47.664;9.162;2023-12-20T12:40:47;8.40;99.30
6948;DHT22;3513;47.664;9.162;2023-12-20T12:43:12;8.50;99.70
6948;DHT22;3513;47.664;9.162;2023-12-20T12:45:38;8.30;99.90
6948;DHT22;3513;47.664;9.162;2023-12-20T12:48:04;8.20;99.30
6948;DHT22;3513;47.664;9.162;2023-12-20T12:50:30;8.10;99.10
6948;DHT22;3513;47.664;9.162;2023-12-20T12:52:56;8.10;99.00
6948;DHT22;3513;47.664;9.162;2023-12-20T12:55:22;8.20;98.60
6948;DHT22;3513;47.664;9.162;2023-12-20T12:57:47;8.40;98.20
6948;DHT22;3513;47.664;9.162;2023-12-20T13:00:13;8.50;97.30
6948;DHT22;3513;47.664;9.162;2023-12-20T13:02:39;8.40;96.60
6948;DHT22;3513;47.664;9.162;2023-12-20T13:05:08;8.50;97.30
6948;DHT22;3513;47.664;9.162;2023-12-20T13:07:34;8.60;97.00
6948;DHT22;3513;47.664;9.162;2023-12-20T13:09:59;8.60;95.70
6948;DHT22;3513;47.664;9.162;2023-12-20T13:12:25;8.50;95.70
6948;DHT22;3513;47.664;9.162;2023-12-20T13:14:51;8.50;95.80
6948;DHT22;3513;47.664;9.162;2023-12-20T13:17:17;8.60;95.90
6948;DHT22;3513;47.664;9.162;2023-12-20T13:19:42;8.70;95.00
6948;DHT22;3513;47.664;9.162;2023-12-20T13:22:08;8.90;95.10
6948;DHT22;3513;47.664;9.162;2023-12-20T13:24:34;9.10;93.80
6948;DHT22;3513;47.664;9.162;2023-12-20T13:27:00;9.20;93.20
6948;DHT22;3513;47.664;9.162;2023-12-20T13:29:25;9.40;92.90
6948;DHT22;3513;47.664;9.162;2023-12-20T13:31:54;9.60;92.00
6948;DHT22;3513;47.664;9.162;2023-12-20T13:34:19;9.70;91.20
6948;DHT22;3513;47.664;9.162;2023-12-20T13:36:45;10.00;90.70
6948;DHT22;3513;47.664;9.162;2023-12-20T13:39:13;10.20;87.00
6948;DHT22;3513;47.664;9.162;2023-12-20T13:41:39;10.50;86.20
6948;DHT22;3513;47.664;9.162;2023-12-20T13:44:05;10.40;85.30
6948;DHT22;3513;47.664;9.162;2023-12-20T13:46:31;10.00;83.50
6948;DHT22;3513;47.664;9.162;2023-12-20T13:48:56;9.90;87.80
6948;DHT22;3513;47.664;9.162;2023-12-20T13:51:22;9.40;90.70
6948;DHT22;3513;47.664;9.162;2023-12-20T13:53:48;8.70;91.90
6948;DHT22;3513;47.664;9.162;2023-12-20T13:56:14;8.40;92.60
6948;DHT22;3513;47.664;9.162;2023-12-20T13:58:40;8.60;92.90
6948;DHT22;3513;47.664;9.162;2023-12-20T14:01:09;8.40;91.70
6948;DHT22;3513;47.664;9.162;2023-12-20T14:03:36;8.40;91.80
6948;DHT22;3513;47.664;9.162;2023-12-20T14:06:01;8.70;91.90
6948;DHT22;3513;47.664;9.162;2023-12-20T14:08:27;8.60;92.10
6948;DHT22;3513;47.664;9.162;2023-12-20T14:10:53;8.60;92.40
6948;DHT22;3513;47.664;9.162;2023-12-20T14:13:19;8.40;92.10
6948;DHT22;3513;47.664;9.162;2023-12-20T14:15:46;8.00;92.00
6948;DHT22;3513;47.664;9.162;2023-12-20T14:18:12;7.70;92.40
6948;DHT22;3513;47.664;9.162;2023-12-20T14:20:40;7.50;93.00
6948;DHT22;3513;47.664;9.162;2023-12-20T14:23:08;7.40;93.40
6948;DHT22;3513;47.664;9.162;2023-12-20T14:25:35;7.50;92.80
6948;DHT22;3513;47.664;9.162;2023-12-20T14:28:03;7.60;92.50
6948;DHT22;3513;47.664;9.162;2023-12-20T14:30:28;7.50;92.60
6948;DHT22;3513;47.664;9.162;2023-12-20T14:32:54;7.50;92.40
6948;DHT22;3513;47.664;9.162;2023-12-20T14:35:20;7.40;92.20
6948;DHT22;3513;47.664;9.162;2023-12-20T14:37:45;7.20;92.80
6948;DHT22;3513;47.664;9.162;2023-12-20T14:40:11;7.20;92.60
6948;DHT22;3513;47.664;9.162;2023-12-20T14:42:43;7.10;92.30
6948;DHT22;3513;47.664;9.162;2023-12-20T14:45:09;7.00;91.60
6948;DHT22;3513;47.664;9.162;2023-12-20T14:47:35;6.90;91.20
6948;DHT22;3513;47.664;9.162;2023-12-20T14:50:05;6.90;90.90
6948;DHT22;3513;47.664;9.162;2023-12-20T14:52:32;6.80;90.40
6948;DHT22;3513;47.664;9.162;2023-12-20T14:54:59;6.80;90.20
6948;DHT22;3513;47.664;9.162;2023-12-20T14:57:25;6.80;90.20
6948;DHT22;3513;47.664;9.162;2023-12-20T14:59:51;7.00;89.80
6948;DHT22;3513;47.664;9.162;2023-12-20T15:02:17;7.30;89.00
6948;DHT22;3513;47.664;9.162;2023-12-20T15:04:43;7.60;87.50
6948;DHT22;3513;47.664;9.162;2023-12-20T15:07:08;7.90;84.10
6948;DHT22;3513;47.664;9.162;2023-12-20T15:09:34;8.10;84.10
6948;DHT22;3513;47.664;9.162;2023-12-20T15:11:59;8.20;83.30
6948;DHT22;3513;47.664;9.162;2023-12-20T15:14:26;8.20;83.10
6948;DHT22;3513;47.664;9.162;2023-12-20T15:16:52;8.10;83.70
6948;DHT22;3513;47.664;9.162;2023-12-20T15:19:18;7.90;86.10
6948;DHT22;3513;47.664;9.162;2023-12-20T15:21:43;7.70;89.00
6948;DHT22;3513;47.664;9.162;2023-12-20T15:24:09;7.50;91.00
6948;DHT22;3513;47.664;9.162;2023-12-20T15:26:42;7.40;91.40
6948;DHT22;3513;47.664;9.162;2023-12-20T15:29:09;7.20;92.20
6948;DHT22;3513;47.664;9.162;2023-12-20T15:31:37;7.00;92.60
6948;DHT22;3513;47.664;9.162;2023-12-20T15:34:02;6.90;92.90
6948;DHT22;3513;47.664;9.162;2023-12-20T15:36:28;6.70;93.20
6948;DHT22;3513;47.664;9.162;2023-12-20T15:38:54;6.60;93.90
6948;DHT22;3513;47.664;9.162;2023-12-20T15:41:23;6.50;93.90
6948;DHT22;3513;47.664;9.162;2023-12-20T15:43:49;6.40;94.00
6948;DHT22;3513;47.664;9.162;2023-12-20T15:46:14;6.30;94.60
6948;DHT22;3513;47.664;9.162;2023-12-20T15:48:41;6.20;95.20
6948;DHT22;3513;47.664;9.162;2023-12-20T15:51:07;6.20;95.40
6948;DHT22;3513;47.664;9.162;2023-12-20T15:53:33;6.10;95.60
6948;DHT22;3513;47.664;9.162;2023-12-20T15:55:59;6.00;95.40
6948;DHT22;3513;47.664;9.162;2023-12-20T15:58:25;5.90;95.40
6948;DHT22;3513;47.664;9.162;2023-12-20T16:00:52;5.90;95.60
6948;DHT22;3513;47.664;9.162;2023-12-20T16:03:17;5.80;95.50
6948;DHT22;3513;47.664;9.162;2023-12-20T16:05:43;5.70;95.70
6948;DHT22;3513;47.664;9.162;2023-12-20T16:08:08;5.70;95.60
6948;DHT22;3513;47.664;9.162;2023-12-20T16:10:34;5.60;95.60
6948;DHT22;3513;47.664;9.162;2023-12-20T16:12:59;5.50;95.70
6948;DHT22;3513;47.664;9.162;2023-12-20T16:15:25;5.40;95.50
6948;DHT22;3513;47.664;9.162;2023-12-20T16:17:50;5.20;95.50